Carlos Pellegrini, Argentina
Current Conditions -  °F | °C
As of 7:00 AM on Tuesday 27 Jan 2015 (Local Time) from SANT Reporting Station
Overcast Overcast  
Wind Chill: 68°   Ceiling: 2000
Heat Index: 68°   Visibility: 4mi
Dew Point: 66°   Wind: 12mph
Humidity: 94%   Direction: 360°N
Pressure: 29.85"   Gusts: NA
Location:  25.68°S, 61.92°W
Report Text: SANT 271000Z 36010KT 6000 BKN020 OVC030SCT040CB 20/19 Q1011
Loading
Personal Weather Stations






























Interactive Weather Map New forecast layout! Learn more

10-Day Weather Forecast

Advertisements
Track Severe Weather on mobile